sensor_id;sensor_type;location;lat;lon;timestamp;temperature;humidity
10249;DHT22;5169;50.560;9.714;2023-06-04T00:02:23;13.40;70.80
10249;DHT22;5169;50.560;9.714;2023-06-04T00:04:48;13.30;70.50
10249;DHT22;5169;50.560;9.714;2023-06-04T00:07:14;13.20;70.40
10249;DHT22;5169;50.560;9.714;2023-06-04T00:09:42;13.20;70.90
10249;DHT22;5169;50.560;9.714;2023-06-04T00:12:08;13.20;70.50
10249;DHT22;5169;50.560;9.714;2023-06-04T00:14:33;13.20;71.20
10249;DHT22;5169;50.560;9.714;2023-06-04T00:16:59;13.20;70.90
10249;DHT22;5169;50.560;9.714;2023-06-04T00:19:27;13.10;71.80
10249;DHT22;5169;50.560;9.714;2023-06-04T00:21:52;13.10;72.00
10249;DHT22;5169;50.560;9.714;2023-06-04T00:24:18;13.00;72.40
10249;DHT22;5169;50.560;9.714;2023-06-04T00:26:48;13.00;72.40
10249;DHT22;5169;50.560;9.714;2023-06-04T00:29:14;12.90;72.50
10249;DHT22;5169;50.560;9.714;2023-06-04T00:31:39;12.90;72.80
10249;DHT22;5169;50.560;9.714;2023-06-04T00:34:07;12.80;73.40
10249;DHT22;5169;50.560;9.714;2023-06-04T00:36:35;12.80;73.30
10249;DHT22;5169;50.560;9.714;2023-06-04T00:39:03;12.80;73.30
10249;DHT22;5169;50.560;9.714;2023-06-04T00:41:28;12.80;74.10
10249;DHT22;5169;50.560;9.714;2023-06-04T00:43:54;12.70;73.70
10249;DHT22;5169;50.560;9.714;2023-06-04T00:46:24;12.70;74.10
10249;DHT22;5169;50.560;9.714;2023-06-04T00:48:56;12.70;74.10
10249;DHT22;5169;50.560;9.714;2023-06-04T00:51:22;12.60;73.90
10249;DHT22;5169;50.560;9.714;2023-06-04T00:53:52;12.70;74.60
10249;DHT22;5169;50.560;9.714;2023-06-04T00:56:18;12.60;74.40
10249;DHT22;5169;50.560;9.714;2023-06-04T00:58:45;12.60;74.60
10249;DHT22;5169;50.560;9.714;2023-06-04T01:01:31;12.50;74.70
10249;DHT22;5169;50.560;9.714;2023-06-04T01:04:03;12.50;76.00
10249;DHT22;5169;50.560;9.714;2023-06-04T01:06:39;12.50;76.00
10249;DHT22;5169;50.560;9.714;2023-06-04T01:09:07;12.50;76.10
10249;DHT22;5169;50.560;9.714;2023-06-04T01:11:37;12.40;76.00
10249;DHT22;5169;50.560;9.714;2023-06-04T01:14:04;12.40;76.30
10249;DHT22;5169;50.560;9.714;2023-06-04T01:16:39;12.40;76.60
10249;DHT22;5169;50.560;9.714;2023-06-04T01:21:50;12.30;76.90
10249;DHT22;5169;50.560;9.714;2023-06-04T01:24:22;12.20;76.80
10249;DHT22;5169;50.560;9.714;2023-06-04T01:26:51;12.30;76.70
10249;DHT22;5169;50.560;9.714;2023-06-04T01:29:17;12.20;76.80
10249;DHT22;5169;50.560;9.714;2023-06-04T01:31:43;12.20;76.80
10249;DHT22;5169;50.560;9.714;2023-06-04T01:34:11;12.30;77.50
10249;DHT22;5169;50.560;9.714;2023-06-04T01:36:36;12.30;77.30
10249;DHT22;5169;50.560;9.714;2023-06-04T01:39:02;12.20;77.50
10249;DHT22;5169;50.560;9.714;2023-06-04T01:41:30;12.20;78.00
10249;DHT22;5169;50.560;9.714;2023-06-04T01:43:55;12.20;78.60
10249;DHT22;5169;50.560;9.714;2023-06-04T01:46:21;12.10;77.50
10249;DHT22;5169;50.560;9.714;2023-06-04T01:48:47;12.10;78.10
10249;DHT22;5169;50.560;9.714;2023-06-04T01:51:14;12.10;78.30
10249;DHT22;5169;50.560;9.714;2023-06-04T01:53:41;12.00;78.70
10249;DHT22;5169;50.560;9.714;2023-06-04T01:56:09;12.00;79.00
10249;DHT22;5169;50.560;9.714;2023-06-04T01:58:36;12.00;78.40
10249;DHT22;5169;50.560;9.714;2023-06-04T02:01:06;12.00;79.30
10249;DHT22;5169;50.560;9.714;2023-06-04T02:03:32;12.00;79.40
10249;DHT22;5169;50.560;9.714;2023-06-04T02:06:05;11.90;79.90
10249;DHT22;5169;50.560;9.714;2023-06-04T02:08:33;11.80;80.00
10249;DHT22;5169;50.560;9.714;2023-06-04T02:10:59;11.80;80.30
10249;DHT22;5169;50.560;9.714;2023-06-04T02:13:25;11.90;80.20
10249;DHT22;5169;50.560;9.714;2023-06-04T02:15:50;12.00;80.60
10249;DHT22;5169;50.560;9.714;2023-06-04T02:18:18;11.90;81.30
10249;DHT22;5169;50.560;9.714;2023-06-04T02:20:46;11.80;81.20
10249;DHT22;5169;50.560;9.714;2023-06-04T02:23:13;11.70;81.60
10249;DHT22;5169;50.560;9.714;2023-06-04T02:25:42;11.80;81.80
10249;DHT22;5169;50.560;9.714;2023-06-04T02:28:10;11.80;82.30
10249;DHT22;5169;50.560;9.714;2023-06-04T02:30:38;11.70;83.00
10249;DHT22;5169;50.560;9.714;2023-06-04T02:33:06;11.60;83.30
10249;DHT22;5169;50.560;9.714;2023-06-04T02:35:35;11.50;84.50
10249;DHT22;5169;50.560;9.714;2023-06-04T02:38:03;11.50;84.60
10249;DHT22;5169;50.560;9.714;2023-06-04T02:40:28;11.30;85.20
10249;DHT22;5169;50.560;9.714;2023-06-04T02:42:55;11.30;85.80
10249;DHT22;5169;50.560;9.714;2023-06-04T02:45:21;11.40;85.40
10249;DHT22;5169;50.560;9.714;2023-06-04T02:47:47;11.40;85.60
10249;DHT22;5169;50.560;9.714;2023-06-04T02:50:15;11.40;86.60
10249;DHT22;5169;50.560;9.714;2023-06-04T02:52:44;11.40;86.50
10249;DHT22;5169;50.560;9.714;2023-06-04T02:55:12;11.40;86.70
10249;DHT22;5169;50.560;9.714;2023-06-04T02:57:42;11.30;87.00
10249;DHT22;5169;50.560;9.714;2023-06-04T03:00:09;11.40;87.40
10249;DHT22;5169;50.560;9.714;2023-06-04T03:02:46;11.40;87.50
10249;DHT22;5169;50.560;9.714;2023-06-04T03:05:16;11.30;87.80
10249;DHT22;5169;50.560;9.714;2023-06-04T03:07:44;11.30;88.60
10249;DHT22;5169;50.560;9.714;2023-06-04T03:10:11;11.20;89.40
10249;DHT22;5169;50.560;9.714;2023-06-04T03:12:37;11.20;89.80
10249;DHT22;5169;50.560;9.714;2023-06-04T03:15:03;11.20;90.10
10249;DHT22;5169;50.560;9.714;2023-06-04T03:17:29;11.10;89.90
10249;DHT22;5169;50.560;9.714;2023-06-04T03:19:56;11.10;90.10
10249;DHT22;5169;50.560;9.714;2023-06-04T03:22:22;11.10;90.30
10249;DHT22;5169;50.560;9.714;2023-06-04T03:24:48;11.10;90.50
10249;DHT22;5169;50.560;9.714;2023-06-04T03:27:13;11.10;90.50
10249;DHT22;5169;50.560;9.714;2023-06-04T03:29:39;11.10;90.60
10249;DHT22;5169;50.560;9.714;2023-06-04T03:32:05;11.10;91.00
10249;DHT22;5169;50.560;9.714;2023-06-04T03:34:34;11.00;91.10
10249;DHT22;5169;50.560;9.714;2023-06-04T03:37:02;11.00;91.30
10249;DHT22;5169;50.560;9.714;2023-06-04T03:39:28;10.90;91.40
10249;DHT22;5169;50.560;9.714;2023-06-04T03:41:56;10.90;91.30
10249;DHT22;5169;50.560;9.714;2023-06-04T03:44:22;10.90;91.60
10249;DHT22;5169;50.560;9.714;2023-06-04T03:46:47;10.90;92.00
10249;DHT22;5169;50.560;9.714;2023-06-04T03:49:14;10.90;92.00
10249;DHT22;5169;50.560;9.714;2023-06-04T03:51:42;11.00;92.10
10249;DHT22;5169;50.560;9.714;2023-06-04T03:54:11;11.00;92.00
10249;DHT22;5169;50.560;9.714;2023-06-04T03:56:37;11.00;92.20
10249;DHT22;5169;50.560;9.714;2023-06-04T03:59:05;11.00;92.40
10249;DHT22;5169;50.560;9.714;2023-06-04T04:01:31;11.00;92.50
10249;DHT22;5169;50.560;9.714;2023-06-04T04:03:56;11.00;92.80
10249;DHT22;5169;50.560;9.714;2023-06-04T04:06:22;10.90;93.30
10249;DHT22;5169;50.560;9.714;2023-06-04T04:08:47;11.00;93.50
10249;DHT22;5169;50.560;9.714;2023-06-04T04:11:15;11.00;93.40
10249;DHT22;5169;50.560;9.714;2023-06-04T04:13:45;11.00;93.60
10249;DHT22;5169;50.560;9.714;2023-06-04T04:16:10;11.00;93.70
10249;DHT22;5169;50.560;9.714;2023-06-04T04:18:37;11.00;93.90
10249;DHT22;5169;50.560;9.714;2023-06-04T04:21:05;10.90;94.00
10249;DHT22;5169;50.560;9.714;2023-06-04T04:23:31;11.00;94.00
10249;DHT22;5169;50.560;9.714;2023-06-04T04:25:58;11.10;93.90
10249;DHT22;5169;50.560;9.714;2023-06-04T04:28:25;11.20;94.10
10249;DHT22;5169;50.560;9.714;2023-06-04T04:30:57;11.40;93.90
10249;DHT22;5169;50.560;9.714;2023-06-04T04:33:25;11.30;94.40
10249;DHT22;5169;50.560;9.714;2023-06-04T04:35:51;11.30;94.50
10249;DHT22;5169;50.560;9.714;2023-06-04T04:38:20;11.30;94.50
10249;DHT22;5169;50.560;9.714;2023-06-04T04:40:49;11.30;94.70
10249;DHT22;5169;50.560;9.714;2023-06-04T04:43:28;11.30;95.00
10249;DHT22;5169;50.560;9.714;2023-06-04T04:45:56;11.40;95.20
10249;DHT22;5169;50.560;9.714;2023-06-04T04:48:21;11.40;95.50
10249;DHT22;5169;50.560;9.714;2023-06-04T04:50:47;11.40;94.80
10249;DHT22;5169;50.560;9.714;2023-06-04T04:53:12;11.50;95.00
10249;DHT22;5169;50.560;9.714;2023-06-04T04:55:43;11.60;94.10
10249;DHT22;5169;50.560;9.714;2023-06-04T04:58:08;11.60;94.70
10249;DHT22;5169;50.560;9.714;2023-06-04T05:00:36;11.70;94.20
10249;DHT22;5169;50.560;9.714;2023-06-04T05:03:02;11.90;94.00
10249;DHT22;5169;50.560;9.714;2023-06-04T05:05:28;12.20;94.00
10249;DHT22;5169;50.560;9.714;2023-06-04T05:07:55;12.30;94.20
10249;DHT22;5169;50.560;9.714;2023-06-04T05:10:21;12.30;94.70
10249;DHT22;5169;50.560;9.714;2023-06-04T05:12:57;12.50;92.90
10249;DHT22;5169;50.560;9.714;2023-06-04T05:15:25;12.60;91.60
10249;DHT22;5169;50.560;9.714;2023-06-04T05:17:52;12.70;91.90
10249;DHT22;5169;50.560;9.714;2023-06-04T05:20:20;12.80;92.00
10249;DHT22;5169;50.560;9.714;2023-06-04T05:22:47;12.90;91.30
10249;DHT22;5169;50.560;9.714;2023-06-04T05:25:16;13.00;92.10
10249;DHT22;5169;50.560;9.714;2023-06-04T05:27:44;13.00;92.30
10249;DHT22;5169;50.560;9.714;2023-06-04T05:30:11;13.10;92.40
10249;DHT22;5169;50.560;9.714;2023-06-04T05:32:39;13.30;90.90
10249;DHT22;5169;50.560;9.714;2023-06-04T05:35:06;13.40;91.20
10249;DHT22;5169;50.560;9.714;2023-06-04T05:37:32;13.50;91.10
10249;DHT22;5169;50.560;9.714;2023-06-04T05:39:59;13.80;90.50
10249;DHT22;5169;50.560;9.714;2023-06-04T05:42:27;14.20;90.10
10249;DHT22;5169;50.560;9.714;2023-06-04T05:44:55;14.70;89.30
10249;DHT22;5169;50.560;9.714;2023-06-04T05:47:21;15.90;87.10
10249;DHT22;5169;50.560;9.714;2023-06-04T05:49:47;16.50;82.20
10249;DHT22;5169;50.560;9.714;2023-06-04T05:52:13;16.90;80.70
10249;DHT22;5169;50.560;9.714;2023-06-04T05:54:38;17.50;79.10
10249;DHT22;5169;50.560;9.714;2023-06-04T05:57:04;18.00;77.50
10249;DHT22;5169;50.560;9.714;2023-06-04T05:59:31;18.50;75.40
10249;DHT22;5169;50.560;9.714;2023-06-04T06:01:57;18.60;73.50
10249;DHT22;5169;50.560;9.714;2023-06-04T06:04:23;18.70;72.80
10249;DHT22;5169;50.560;9.714;2023-06-04T06:06:51;18.70;72.50
10249;DHT22;5169;50.560;9.714;2023-06-04T06:09:19;18.90;72.30
10249;DHT22;5169;50.560;9.714;2023-06-04T06:11:45;18.70;72.30
10249;DHT22;5169;50.560;9.714;2023-06-04T06:14:11;18.70;72.00
10249;DHT22;5169;50.560;9.714;2023-06-04T06:16:36;18.30;71.40
10249;DHT22;5169;50.560;9.714;2023-06-04T06:19:02;18.20;73.00
10249;DHT22;5169;50.560;9.714;2023-06-04T06:21:28;18.30;73.60
10249;DHT22;5169;50.560;9.714;2023-06-04T06:23:54;18.40;74.00
10249;DHT22;5169;50.560;9.714;2023-06-04T06:26:20;18.70;72.10
10249;DHT22;5169;50.560;9.714;2023-06-04T06:28:49;18.50;72.10
10249;DHT22;5169;50.560;9.714;2023-06-04T06:31:17;18.50;71.50
10249;DHT22;5169;50.560;9.714;2023-06-04T06:33:42;18.40;72.70
10249;DHT22;5169;50.560;9.714;2023-06-04T06:36:10;18.20;75.70
10249;DHT22;5169;50.560;9.714;2023-06-04T06:38:37;18.30;76.10
10249;DHT22;5169;50.560;9.714;2023-06-04T06:41:03;18.40;74.70
10249;DHT22;5169;50.560;9.714;2023-06-04T06:43:28;18.70;74.80
10249;DHT22;5169;50.560;9.714;2023-06-04T06:45:56;19.00;75.00
10249;DHT22;5169;50.560;9.714;2023-06-04T06:48:22;19.10;73.90
10249;DHT22;5169;50.560;9.714;2023-06-04T06:50:50;19.00;74.70
10249;DHT22;5169;50.560;9.714;2023-06-04T06:53:16;18.80;74.00
10249;DHT22;5169;50.560;9.714;2023-06-04T06:55:41;18.70;74.30
10249;DHT22;5169;50.560;9.714;2023-06-04T06:58:09;18.60;74.40
10249;DHT22;5169;50.560;9.714;2023-06-04T07:00:37;18.50;76.20
10249;DHT22;5169;50.560;9.714;2023-06-04T07:03:07;18.30;76.80
10249;DHT22;5169;50.560;9.714;2023-06-04T07:05:35;18.40;76.70
10249;DHT22;5169;50.560;9.714;2023-06-04T07:08:00;18.50;77.10
10249;DHT22;5169;50.560;9.714;2023-06-04T07:10:27;18.60;76.40
10249;DHT22;5169;50.560;9.714;2023-06-04T07:12:52;18.60;76.30
10249;DHT22;5169;50.560;9.714;2023-06-04T07:15:18;18.80;78.20
10249;DHT22;5169;50.560;9.714;2023-06-04T07:17:46;18.80;77.70
10249;DHT22;5169;50.560;9.714;2023-06-04T07:20:11;18.80;78.00
10249;DHT22;5169;50.560;9.714;2023-06-04T07:22:38;19.10;76.40
10249;DHT22;5169;50.560;9.714;2023-06-04T07:25:04;19.20;75.00
10249;DHT22;5169;50.560;9.714;2023-06-04T07:27:33;19.30;75.00
10249;DHT22;5169;50.560;9.714;2023-06-04T07:30:01;19.50;74.50
10249;DHT22;5169;50.560;9.714;2023-06-04T07:32:27;19.50;73.50
10249;DHT22;5169;50.560;9.714;2023-06-04T07:34:55;19.60;74.50
10249;DHT22;5169;50.560;9.714;2023-06-04T07:37:21;19.70;73.70
10249;DHT22;5169;50.560;9.714;2023-06-04T07:39:46;19.70;73.70
10249;DHT22;5169;50.560;9.714;2023-06-04T07:42:16;19.70;74.10
10249;DHT22;5169;50.560;9.714;2023-06-04T07:44:44;19.90;73.80
10249;DHT22;5169;50.560;9.714;2023-06-04T07:47:10;20.00;70.40
10249;DHT22;5169;50.560;9.714;2023-06-04T07:49:36;20.20;73.80
10249;DHT22;5169;50.560;9.714;2023-06-04T07:52:04;20.30;67.30
10249;DHT22;5169;50.560;9.714;2023-06-04T07:54:29;20.30;66.30
10249;DHT22;5169;50.560;9.714;2023-06-04T07:56:55;20.30;65.80
10249;DHT22;5169;50.560;9.714;2023-06-04T07:59:24;20.40;63.70
10249;DHT22;5169;50.560;9.714;2023-06-04T08:01:51;20.40;63.70
10249;DHT22;5169;50.560;9.714;2023-06-04T08:04:17;20.60;62.10
10249;DHT22;5169;50.560;9.714;2023-06-04T08:06:45;20.70;62.10
10249;DHT22;5169;50.560;9.714;2023-06-04T08:09:12;21.00;62.10
10249;DHT22;5169;50.560;9.714;2023-06-04T08:11:40;21.10;61.40
10249;DHT22;5169;50.560;9.714;2023-06-04T08:14:06;21.20;60.00
10249;DHT22;5169;50.560;9.714;2023-06-04T08:16:32;21.10;62.80
10249;DHT22;5169;50.560;9.714;2023-06-04T08:18:57;21.30;57.60
10249;DHT22;5169;50.560;9.714;2023-06-04T08:21:26;21.30;60.70
10249;DHT22;5169;50.560;9.714;2023-06-04T08:23:52;21.30;60.30
10249;DHT22;5169;50.560;9.714;2023-06-04T08:26:18;21.10;60.60
10249;DHT22;5169;50.560;9.714;2023-06-04T08:28:47;21.10;58.10
10249;DHT22;5169;50.560;9.714;2023-06-04T08:31:13;21.20;58.70
10249;DHT22;5169;50.560;9.714;2023-06-04T08:33:38;21.30;60.70
10249;DHT22;5169;50.560;9.714;2023-06-04T08:36:04;21.40;56.80
10249;DHT22;5169;50.560;9.714;2023-06-04T08:38:30;21.50;55.50
10249;DHT22;5169;50.560;9.714;2023-06-04T08:41:15;21.50;60.10
10249;DHT22;5169;50.560;9.714;2023-06-04T08:43:42;21.60;58.20
10249;DHT22;5169;50.560;9.714;2023-06-04T08:46:17;21.70;56.20
10249;DHT22;5169;50.560;9.714;2023-06-04T08:48:46;21.80;55.40
10249;DHT22;5169;50.560;9.714;2023-06-04T08:51:15;21.90;56.10
10249;DHT22;5169;50.560;9.714;2023-06-04T08:53:42;22.10;58.40
10249;DHT22;5169;50.560;9.714;2023-06-04T08:56:08;22.20;55.30
10249;DHT22;5169;50.560;9.714;2023-06-04T08:58:36;22.40;56.00
10249;DHT22;5169;50.560;9.714;2023-06-04T09:01:02;22.50;55.60
10249;DHT22;5169;50.560;9.714;2023-06-04T09:03:30;22.50;56.30
10249;DHT22;5169;50.560;9.714;2023-06-04T09:05:58;22.50;54.50
10249;DHT22;5169;50.560;9.714;2023-06-04T09:08:25;22.70;54.80
10249;DHT22;5169;50.560;9.714;2023-06-04T09:10:53;22.90;54.40
10249;DHT22;5169;50.560;9.714;2023-06-04T09:13:22;23.00;55.70
10249;DHT22;5169;50.560;9.714;2023-06-04T09:15:59;23.20;50.90
10249;DHT22;5169;50.560;9.714;2023-06-04T09:18:25;23.30;54.90
10249;DHT22;5169;50.560;9.714;2023-06-04T09:21:03;23.50;51.50
10249;DHT22;5169;50.560;9.714;2023-06-04T09:23:29;23.50;51.70
10249;DHT22;5169;50.560;9.714;2023-06-04T09:25:55;23.50;52.70
10249;DHT22;5169;50.560;9.714;2023-06-04T09:28:21;23.60;50.10
10249;DHT22;5169;50.560;9.714;2023-06-04T09:30:56;23.30;50.10
10249;DHT22;5169;50.560;9.714;2023-06-04T09:33:21;23.30;51.30
10249;DHT22;5169;50.560;9.714;2023-06-04T09:35:58;23.20;50.20
10249;DHT22;5169;50.560;9.714;2023-06-04T09:38:33;23.00;50.40
10249;DHT22;5169;50.560;9.714;2023-06-04T09:41:02;23.00;53.90
10249;DHT22;5169;50.560;9.714;2023-06-04T09:43:30;23.20;51.40
10249;DHT22;5169;50.560;9.714;2023-06-04T09:46:15;23.30;52.40
10249;DHT22;5169;50.560;9.714;2023-06-04T09:48:41;23.60;52.50
10249;DHT22;5169;50.560;9.714;2023-06-04T09:51:14;23.70;50.40
10249;DHT22;5169;50.560;9.714;2023-06-04T09:53:57;23.80;52.20
10249;DHT22;5169;50.560;9.714;2023-06-04T09:56:23;24.20;52.90
10249;DHT22;5169;50.560;9.714;2023-06-04T09:59:00;24.50;51.50
10249;DHT22;5169;50.560;9.714;2023-06-04T10:01:28;24.60;48.10
10249;DHT22;5169;50.560;9.714;2023-06-04T10:03:55;24.50;50.20
10249;DHT22;5169;50.560;9.714;2023-06-04T10:06:23;24.70;50.60
10249;DHT22;5169;50.560;9.714;2023-06-04T10:08:52;24.70;47.30
10249;DHT22;5169;50.560;9.714;2023-06-04T10:11:26;24.70;47.60
10249;DHT22;5169;50.560;9.714;2023-06-04T10:13:53;24.90;47.90
10249;DHT22;5169;50.560;9.714;2023-06-04T10:16:21;24.90;46.10
10249;DHT22;5169;50.560;9.714;2023-06-04T10:18:51;24.60;45.70
10249;DHT22;5169;50.560;9.714;2023-06-04T10:21:17;24.80;50.30
10249;DHT22;5169;50.560;9.714;2023-06-04T10:23:44;25.20;46.30
10249;DHT22;5169;50.560;9.714;2023-06-04T10:26:16;25.60;46.60
10249;DHT22;5169;50.560;9.714;2023-06-04T10:28:44;26.00;46.50
10249;DHT22;5169;50.560;9.714;2023-06-04T10:31:10;26.20;46.20
10249;DHT22;5169;50.560;9.714;2023-06-04T10:33:36;26.50;42.70
10249;DHT22;5169;50.560;9.714;2023-06-04T10:36:22;27.00;47.00
10249;DHT22;5169;50.560;9.714;2023-06-04T10:38:52;28.20;41.50
10249;DHT22;5169;50.560;9.714;2023-06-04T10:41:19;28.90;43.10
10249;DHT22;5169;50.560;9.714;2023-06-04T10:43:47;30.30;37.60
10249;DHT22;5169;50.560;9.714;2023-06-04T10:46:22;31.30;36.80
10249;DHT22;5169;50.560;9.714;2023-06-04T10:48:52;31.90;36.40
10249;DHT22;5169;50.560;9.714;2023-06-04T10:51:34;32.50;32.90
10249;DHT22;5169;50.560;9.714;2023-06-04T10:54:01;32.90;33.30
10249;DHT22;5169;50.560;9.714;2023-06-04T10:56:31;33.30;32.30
10249;DHT22;5169;50.560;9.714;2023-06-04T10:59:01;33.70;30.20
10249;DHT22;5169;50.560;9.714;2023-06-04T11:01:37;33.80;31.80
10249;DHT22;5169;50.560;9.714;2023-06-04T11:04:05;34.40;30.40
10249;DHT22;5169;50.560;9.714;2023-06-04T11:06:31;34.90;30.00
10249;DHT22;5169;50.560;9.714;2023-06-04T11:09:05;35.20;28.40
10249;DHT22;5169;50.560;9.714;2023-06-04T11:11:32;35.00;28.20
10249;DHT22;5169;50.560;9.714;2023-06-04T11:14:11;34.70;28.10
10249;DHT22;5169;50.560;9.714;2023-06-04T11:16:43;35.40;27.40
10249;DHT22;5169;50.560;9.714;2023-06-04T11:19:09;34.90;27.20
10249;DHT22;5169;50.560;9.714;2023-06-04T11:21:37;35.10;26.20
10249;DHT22;5169;50.560;9.714;2023-06-04T11:24:03;35.30;26.10
10249;DHT22;5169;50.560;9.714;2023-06-04T11:26:38;35.80;26.80
10249;DHT22;5169;50.560;9.714;2023-06-04T11:29:13;35.20;24.70
10249;DHT22;5169;50.560;9.714;2023-06-04T11:31:45;34.50;27.30
10249;DHT22;5169;50.560;9.714;2023-06-04T11:34:22;35.10;28.40
10249;DHT22;5169;50.560;9.714;2023-06-04T11:36:48;35.50;27.60
10249;DHT22;5169;50.560;9.714;2023-06-04T11:39:15;35.70;26.40
10249;DHT22;5169;50.560;9.714;2023-06-04T11:41:43;35.90;26.90
10249;DHT22;5169;50.560;9.714;2023-06-04T11:44:13;35.50;26.10
10249;DHT22;5169;50.560;9.714;2023-06-04T11:46:43;35.20;27.20
10249;DHT22;5169;50.560;9.714;2023-06-04T11:49:15;35.50;27.10
10249;DHT22;5169;50.560;9.714;2023-06-04T11:51:48;35.30;25.40
10249;DHT22;5169;50.560;9.714;2023-06-04T11:54:18;35.10;26.10
10249;DHT22;5169;50.560;9.714;2023-06-04T11:56:44;34.40;29.50
10249;DHT22;5169;50.560;9.714;2023-06-04T11:59:15;33.70;28.30
10249;DHT22;5169;50.560;9.714;2023-06-04T12:01:46;32.70;28.10
10249;DHT22;5169;50.560;9.714;2023-06-04T12:04:16;32.20;28.70
10249;DHT22;5169;50.560;9.714;2023-06-04T12:06:52;30.60;28.50
10249;DHT22;5169;50.560;9.714;2023-06-04T12:09:22;29.50;30.00
10249;DHT22;5169;50.560;9.714;2023-06-04T12:11:48;28.80;31.60
10249;DHT22;5169;50.560;9.714;2023-06-04T12:14:18;28.20;33.40
10249;DHT22;5169;50.560;9.714;2023-06-04T12:17:06;27.90;35.00
10249;DHT22;5169;50.560;9.714;2023-06-04T12:19:32;27.60;33.50
10249;DHT22;5169;50.560;9.714;2023-06-04T12:22:03;27.40;34.00
10249;DHT22;5169;50.560;9.714;2023-06-04T12:24:31;27.20;35.00
10249;DHT22;5169;50.560;9.714;2023-06-04T12:27:10;27.10;34.70
10249;DHT22;5169;50.560;9.714;2023-06-04T12:29:36;26.90;35.90
10249;DHT22;5169;50.560;9.714;2023-06-04T12:32:06;26.60;34.40
10249;DHT22;5169;50.560;9.714;2023-06-04T12:34:37;26.60;37.80
10249;DHT22;5169;50.560;9.714;2023-06-04T12:37:03;26.30;35.00
10249;DHT22;5169;50.560;9.714;2023-06-04T12:39:33;26.40;37.60
10249;DHT22;5169;50.560;9.714;2023-06-04T12:42:01;26.30;36.40
10249;DHT22;5169;50.560;9.714;2023-06-04T12:44:27;26.30;39.80
10249;DHT22;5169;50.560;9.714;2023-06-04T12:46:54;26.40;38.40
10249;DHT22;5169;50.560;9.714;2023-06-04T12:49:21;26.40;36.10
10249;DHT22;5169;50.560;9.714;2023-06-04T12:51:47;26.20;34.90
10249;DHT22;5169;50.560;9.714;2023-06-04T12:54:15;25.70;36.10
10249;DHT22;5169;50.560;9.714;2023-06-04T12:56:44;25.50;37.60
10249;DHT22;5169;50.560;9.714;2023-06-04T12:59:14;25.50;39.20
10249;DHT22;5169;50.560;9.714;2023-06-04T13:01:45;25.50;36.50
10249;DHT22;5169;50.560;9.714;2023-06-04T13:04:10;25.40;36.40
10249;DHT22;5169;50.560;9.714;2023-06-04T13:06:37;25.20;36.70
10249;DHT22;5169;50.560;9.714;2023-06-04T13:09:04;25.10;36.10
10249;DHT22;5169;50.560;9.714;2023-06-04T13:11:38;25.10;37.10
10249;DHT22;5169;50.560;9.714;2023-06-04T13:14:04;25.10;36.70
10249;DHT22;5169;50.560;9.714;2023-06-04T13:16:32;25.10;37.70
10249;DHT22;5169;50.560;9.714;2023-06-04T13:18:57;25.10;36.90
10249;DHT22;5169;50.560;9.714;2023-06-04T13:21:23;25.20;38.20
10249;DHT22;5169;50.560;9.714;2023-06-04T13:23:53;25.20;39.50
10249;DHT22;5169;50.560;9.714;2023-06-04T13:26:24;25.20;39.30
10249;DHT22;5169;50.560;9.714;2023-06-04T13:28:51;25.20;38.50
10249;DHT22;5169;50.560;9.714;2023-06-04T13:31:17;25.20;41.50
10249;DHT22;5169;50.560;9.714;2023-06-04T13:33:44;25.20;38.50
10249;DHT22;5169;50.560;9.714;2023-06-04T13:36:10;25.20;40.60
10249;DHT22;5169;50.560;9.714;2023-06-04T13:38:36;25.20;40.00
10249;DHT22;5169;50.560;9.714;2023-06-04T13:41:01;25.20;39.50
10249;DHT22;5169;50.560;9.714;2023-06-04T13:43:29;25.10;37.50
10249;DHT22;5169;50.560;9.714;2023-06-04T13:45:54;25.00;39.20
10249;DHT22;5169;50.560;9.714;2023-06-04T13:48:20;24.90;40.20
10249;DHT22;5169;50.560;9.714;2023-06-04T13:50:48;25.00;42.40
10249;DHT22;5169;50.560;9.714;2023-06-04T13:53:14;25.10;42.80
10249;DHT22;5169;50.560;9.714;2023-06-04T13:55:39;25.20;40.60
10249;DHT22;5169;50.560;9.714;2023-06-04T13:58:05;25.20;41.50
10249;DHT22;5169;50.560;9.714;2023-06-04T14:00:32;25.20;41.20
10249;DHT22;5169;50.560;9.714;2023-06-04T14:02:58;25.20;40.20
10249;DHT22;5169;50.560;9.714;2023-06-04T14:05:25;25.10;42.60
10249;DHT22;5169;50.560;9.714;2023-06-04T14:07:53;24.90;40.10
10249;DHT22;5169;50.560;9.714;2023-06-04T14:10:18;24.90;40.00
10249;DHT22;5169;50.560;9.714;2023-06-04T14:12:44;24.80;41.40
10249;DHT22;5169;50.560;9.714;2023-06-04T14:15:11;24.90;43.20
10249;DHT22;5169;50.560;9.714;2023-06-04T14:17:37;25.00;41.30
10249;DHT22;5169;50.560;9.714;2023-06-04T14:20:04;24.90;42.20
10249;DHT22;5169;50.560;9.714;2023-06-04T14:22:37;24.80;41.20
10249;DHT22;5169;50.560;9.714;2023-06-04T14:25:04;24.70;42.40
10249;DHT22;5169;50.560;9.714;2023-06-04T14:27:31;24.70;43.00
10249;DHT22;5169;50.560;9.714;2023-06-04T14:29:56;24.70;40.80
10249;DHT22;5169;50.560;9.714;2023-06-04T14:32:22;24.70;39.30
10249;DHT22;5169;50.560;9.714;2023-06-04T14:34:48;24.70;42.10
10249;DHT22;5169;50.560;9.714;2023-06-04T14:37:13;24.60;41.00
10249;DHT22;5169;50.560;9.714;2023-06-04T14:39:39;24.50;40.00
10249;DHT22;5169;50.560;9.714;2023-06-04T14:42:05;24.40;39.20
10249;DHT22;5169;50.560;9.714;2023-06-04T14:44:35;24.40;40.40
10249;DHT22;5169;50.560;9.714;2023-06-04T14:47:00;24.30;42.30
10249;DHT22;5169;50.560;9.714;2023-06-04T14:49:26;24.30;41.70
10249;DHT22;5169;50.560;9.714;2023-06-04T14:51:52;24.30;39.90
10249;DHT22;5169;50.560;9.714;2023-06-04T14:54:17;24.30;41.10
10249;DHT22;5169;50.560;9.714;2023-06-04T14:56:43;24.20;41.20
10249;DHT22;5169;50.560;9.714;2023-06-04T14:59:09;24.10;39.80
10249;DHT22;5169;50.560;9.714;2023-06-04T15:01:37;24.10;40.30
10249;DHT22;5169;50.560;9.714;2023-06-04T15:04:04;24.10;41.80
10249;DHT22;5169;50.560;9.714;2023-06-04T15:06:30;24.00;39.10
10249;DHT22;5169;50.560;9.714;2023-06-04T15:08:58;24.00;40.70
10249;DHT22;5169;50.560;9.714;2023-06-04T15:11:26;24.00;41.50
10249;DHT22;5169;50.560;9.714;2023-06-04T15:13:53;24.00;41.80
10249;DHT22;5169;50.560;9.714;2023-06-04T15:16:21;24.10;42.00
10249;DHT22;5169;50.560;9.714;2023-06-04T15:18:47;24.00;40.10
10249;DHT22;5169;50.560;9.714;2023-06-04T15:21:15;23.90;40.00
10249;DHT22;5169;50.560;9.714;2023-06-04T15:23:42;23.90;40.10
10249;DHT22;5169;50.560;9.714;2023-06-04T15:26:12;23.90;41.50
10249;DHT22;5169;50.560;9.714;2023-06-04T15:28:42;23.80;40.90
10249;DHT22;5169;50.560;9.714;2023-06-04T15:31:10;23.70;42.30
10249;DHT22;5169;50.560;9.714;2023-06-04T15:33:35;23.70;42.80
10249;DHT22;5169;50.560;9.714;2023-06-04T15:36:01;23.50;42.10
10249;DHT22;5169;50.560;9.714;2023-06-04T15:38:27;23.40;40.90
10249;DHT22;5169;50.560;9.714;2023-06-04T15:40:53;23.30;41.30
10249;DHT22;5169;50.560;9.714;2023-06-04T15:43:20;23.30;42.00
10249;DHT22;5169;50.560;9.714;2023-06-04T15:45:46;23.40;43.30
10249;DHT22;5169;50.560;9.714;2023-06-04T15:48:11;23.40;44.30
10249;DHT22;5169;50.560;9.714;2023-06-04T15:50:37;23.30;42.30
10249;DHT22;5169;50.560;9.714;2023-06-04T15:53:05;23.30;43.90